aviador You're here:

UKBB Decoded Metar

KIEV in UKRAINE
Report Time2018-05-21 16:30:00
UTC Time2018-05-21 17:04:11
Flight Rules vfr VFR
Wind360° at 12 kt
W.Decomp.*RWY 36: 12.0 kt HW 1 kt LCW
Visibility9999 m
Phenomena:N/A
Clouds:Broken 040 Hf
Expected CloudBase > 1,600 ft AGL from Temp-Dew spread
Ceiling4,000 ft
Temp14°C (ISA -0)
Dew Point10°C (77% RH)
AAT9.7°C
QNH1022 hPa
Density Alt226 ft
Elevation390 ft
Report Wrong Elevation
Raw Report
METAR UKBB 211630Z 36006MPS 9999 BKN040 14/10 Q1022 R88/D NOSIG=

Extra information for UKBB:More info

Metar Taf Metar & Taf Last 4 Metars F.Rules Stats Wind Profile Meteogram Temp Stats Airport Information Weather charts Add Link Nearby VenuesMetar ALERT Operation Metar Decoded Social comments